Time;durP1;ratioP1;P1;durP2;ratioP2;P2;SDS_P1;SDS_P2;PMS_P1;PMS_P2;Temp;Humidity;BMP_temperature;BMP_pressure;BME280_temperature;BME280_humidity;BME280_pressure;Samples;Min_cycle;Max_cycle;Signal;HPM_P1;HPM_P2
2022/06/28 00:00:29;;;;;;;7.75;2.70;;;24.60;99.90;;;;;;5053757;28;20063;-80
2022/06/28 00:02:55;;;;;;;8.48;3.30;;;24.60;99.90;;;;;;5053467;28;20388;-80
2022/06/28 00:05:21;;;;;;;8.52;3.17;;;24.50;99.90;;;;;;5053735;28;20074;-80
2022/06/28 00:07:47;;;;;;;4.43;3.13;;;24.40;99.90;;;;;;5052390;28;20499;-80
2022/06/28 00:10:15;;;;;;;6.47;3.30;;;24.40;99.90;;;;;;5053676;28;20055;-79
2022/06/28 00:12:41;;;;;;;3.22;2.47;;;24.30;99.90;;;;;;5053680;28;20025;-80
2022/06/28 00:17:54;;;;;;;4.93;3.35;;;24.20;99.90;;;;;;5053731;28;20102;-80
2022/06/28 00:20:21;;;;;;;6.70;3.15;;;24.10;99.90;;;;;;5053565;28;20457;-79
2022/06/28 00:22:46;;;;;;;7.00;3.65;;;23.90;99.90;;;;;;5053258;28;20397;-80
2022/06/28 00:25:12;;;;;;;5.88;3.45;;;23.80;99.90;;;;;;5053518;28;20028;-80
2022/06/28 00:27:38;;;;;;;4.53;3.20;;;23.70;99.90;;;;;;5052324;28;20029;-80
2022/06/28 00:30:05;;;;;;;7.03;2.88;;;23.60;99.90;;;;;;5053473;28;20100;-79
2022/06/28 00:32:32;;;;;;;4.75;2.95;;;23.50;99.90;;;;;;5053168;28;20025;-79
2022/06/28 00:34:58;;;;;;;3.03;2.70;;;23.40;99.90;;;;;;5052300;28;20449;-79
2022/06/28 00:37:23;;;;;;;4.85;2.95;;;23.30;99.90;;;;;;5053399;28;20028;-79
2022/06/28 00:39:49;;;;;;;4.82;2.67;;;23.30;99.90;;;;;;5053135;28;20100;-78
2022/06/28 00:42:15;;;;;;;7.55;2.90;;;23.20;99.90;;;;;;5053450;28;20025;-79
2022/06/28 00:44:41;;;;;;;4.82;3.22;;;22.90;99.90;;;;;;5053380;28;20025;-79
2022/06/28 00:47:09;;;;;;;4.25;2.80;;;22.50;99.90;;;;;;5053374;28;20078;-79
2022/06/28 00:49:39;;;;;;;3.50;3.20;;;22.20;99.90;;;;;;5053356;28;20033;-79
2022/06/28 00:52:05;;;;;;;4.80;3.00;;;22.00;99.90;;;;;;5053351;28;20059;-79
2022/06/28 00:54:30;;;;;;;4.15;3.47;;;21.90;99.90;;;;;;5052037;28;20032;-80
2022/06/28 00:56:56;;;;;;;4.25;3.17;;;21.80;99.90;;;;;;5054661;28;20053;-79
2022/06/28 00:59:22;;;;;;;3.53;2.67;;;21.90;99.90;;;;;;5057107;28;20037;-79
2022/06/28 01:01:47;;;;;;;2.75;2.55;;;21.90;99.90;;;;;;5055735;28;20025;-80
2022/06/28 01:04:13;;;;;;;2.97;2.78;;;21.90;99.90;;;;;;5056999;28;20025;-80
2022/06/28 01:06:39;;;;;;;6.22;3.08;;;21.60;99.90;;;;;;5057260;28;20449;-79
2022/06/28 01:09:05;;;;;;;3.45;3.15;;;21.60;99.90;;;;;;5056841;28;20126;-79
2022/06/28 01:11:32;;;;;;;6.57;3.28;;;21.60;99.90;;;;;;5056844;28;20037;-79
2022/06/28 01:14:00;;;;;;;3.53;2.70;;;21.60;99.90;;;;;;5056783;28;20100;-79
2022/06/28 01:16:26;;;;;;;3.10;2.75;;;21.60;99.90;;;;;;5056756;28;20025;-79
2022/06/28 01:18:52;;;;;;;3.30;3.00;;;21.60;99.90;;;;;;5056731;28;20021;-79
2022/06/28 01:21:18;;;;;;;5.47;4.80;;;21.50;99.90;;;;;;5055419;28;20083;-79
2022/06/28 01:23:45;;;;;;;3.63;3.42;;;21.40;99.90;;;;;;5055484;28;20025;-80
2022/06/28 01:26:13;;;;;;;4.07;3.70;;;21.30;99.90;;;;;;5055250;28;20025;-80
2022/06/28 01:28:41;;;;;;;4.45;3.50;;;21.20;99.90;;;;;;5056890;28;20060;-79
2022/06/28 01:31:07;;;;;;;5.18;3.72;;;21.00;99.90;;;;;;5055435;28;20044;-79
2022/06/28 01:33:36;;;;;;;4.03;3.58;;;20.90;99.90;;;;;;5056433;28;20025;-79
2022/06/28 01:36:02;;;;;;;6.72;3.75;;;20.80;99.90;;;;;;5056354;28;20044;-79
2022/06/28 01:38:28;;;;;;;4.20;3.83;;;20.80;99.90;;;;;;5056607;28;20117;-79
2022/06/28 01:40:54;;;;;;;3.47;3.17;;;20.80;99.90;;;;;;5056316;28;20056;-79
2022/06/28 01:43:20;;;;;;;3.42;3.13;;;20.90;99.90;;;;;;5056272;28;20048;-79
2022/06/28 01:45:47;;;;;;;3.80;3.42;;;20.90;99.90;;;;;;5056212;28;20025;-79
2022/06/28 01:48:13;;;;;;;4.28;3.67;;;20.90;99.90;;;;;;5054998;28;20435;-79
2022/06/28 01:50:39;;;;;;;4.07;2.55;;;20.90;99.90;;;;;;5054842;28;20116;-80
2022/06/28 01:53:04;;;;;;;3.15;2.88;;;20.90;99.90;;;;;;5056094;28;20102;-79
2022/06/28 01:55:30;;;;;;;3.05;2.42;;;20.90;99.90;;;;;;5054769;28;20032;-80
2022/06/28 01:57:56;;;;;;;4.00;3.08;;;20.90;99.90;;;;;;5054407;28;20048;-79
2022/06/28 02:00:21;;;;;;;3.30;2.40;;;20.90;99.90;;;;;;5055992;28;20043;-78
2022/06/28 02:02:47;;;;;;;4.90;2.22;;;20.80;99.90;;;;;;5054597;28;20020;-79
2022/06/28 02:05:13;;;;;;;2.50;1.98;;;20.80;99.90;;;;;;5055602;28;20021;-79
2022/06/28 02:07:49;;;;;;;3.17;2.30;;;20.80;99.90;;;;;;5053696;28;20032;-79
2022/06/28 02:10:16;;;;;;;3.97;3.28;;;20.80;99.90;;;;;;5055857;28;20467;-80
2022/06/28 02:12:41;;;;;;;4.80;2.63;;;20.70;99.90;;;;;;5054527;28;20021;-80
2022/06/28 02:15:07;;;;;;;2.50;2.10;;;20.50;99.90;;;;;;5054397;28;20028;-80
2022/06/28 02:17:33;;;;;;;5.15;2.63;;;20.40;99.90;;;;;;5054378;28;20074;-80
2022/06/28 02:19:59;;;;;;;5.78;3.05;;;20.30;99.90;;;;;;5055574;28;20025;-80
2022/06/28 02:22:25;;;;;;;4.70;3.15;;;20.20;99.90;;;;;;5054260;28;20029;-80
2022/06/28 02:24:51;;;;;;;5.35;3.42;;;20.10;99.90;;;;;;5055471;28;20025;-80
2022/06/28 02:27:17;;;;;;;5.93;2.63;;;20.00;99.90;;;;;;5054139;28;20033;-80
2022/06/28 02:29:43;;;;;;;3.47;2.67;;;20.00;99.90;;;;;;5054112;28;20393;-80
2022/06/28 02:32:09;;;;;;;3.05;2.75;;;19.90;99.90;;;;;;5055614;28;20064;-80
2022/06/28 02:40:21;;;;;;;4.38;3.95;;;19.80;99.90;;;;;;5055436;28;20164;-79
2022/06/28 02:42:48;;;;;;;4.43;4.03;;;19.80;99.90;;;;;;5054065;28;20028;-78
2022/06/28 02:45:14;;;;;;;6.40;4.22;;;19.70;99.90;;;;;;5054065;28;20074;-77
2022/06/28 02:47:40;;;;;;;6.47;3.92;;;19.60;99.90;;;;;;5054711;28;20465;-78
2022/06/28 02:50:06;;;;;;;4.43;4.00;;;19.60;99.90;;;;;;5053840;28;20033;-77
2022/06/28 02:52:32;;;;;;;5.97;4.22;;;19.60;99.90;;;;;;5053799;28;20031;-77
2022/06/28 02:54:57;;;;;;;7.25;5.07;;;19.50;99.90;;;;;;5053669;28;20029;-77
2022/06/28 02:57:23;;;;;;;4.38;3.97;;;19.50;99.90;;;;;;5053317;28;20041;-76
2022/06/28 02:59:49;;;;;;;4.80;3.85;;;19.50;99.90;;;;;;5054832;28;20536;-77
2022/06/28 03:02:14;;;;;;;5.90;4.45;;;19.50;99.90;;;;;;5053408;28;20462;-77
2022/06/28 03:04:40;;;;;;;4.80;4.35;;;19.40;99.90;;;;;;5053401;28;20514;-77
2022/06/28 03:07:05;;;;;;;5.50;4.90;;;19.40;99.90;;;;;;5054800;28;20021;-77
2022/06/28 03:09:31;;;;;;;4.85;4.45;;;19.40;99.90;;;;;;5053274;28;20029;-78
2022/06/28 03:11:57;;;;;;;5.03;4.57;;;19.40;99.90;;;;;;5053277;28;20556;-77
2022/06/28 03:14:22;;;;;;;5.30;4.88;;;19.40;99.90;;;;;;5054774;28;20021;-78
2022/06/28 03:16:48;;;;;;;6.03;5.38;;;19.40;99.90;;;;;;5054431;28;20029;-78
2022/06/28 03:19:13;;;;;;;5.53;4.97;;;19.40;99.90;;;;;;5053982;28;20036;-78
2022/06/28 03:21:39;;;;;;;7.63;5.07;;;19.30;99.90;;;;;;5054360;28;20449;-78
2022/06/28 03:24:05;;;;;;;4.80;4.40;;;19.30;99.90;;;;;;5053803;28;20029;-78
2022/06/28 03:26:30;;;;;;;6.07;4.95;;;19.30;99.90;;;;;;5054370;28;20029;-77
2022/06/28 03:28:56;;;;;;;6.45;4.85;;;19.30;99.90;;;;;;5053581;28;20400;-78
2022/06/28 03:31:22;;;;;;;4.88;4.40;;;19.30;99.90;;;;;;5052914;28;20307;-78
2022/06/28 03:33:47;;;;;;;8.40;5.53;;;19.30;99.90;;;;;;5054413;28;20029;-78
2022/06/28 03:36:13;;;;;;;4.65;4.25;;;19.40;99.90;;;;;;5054405;28;20431;-77
2022/06/28 03:38:38;;;;;;;5.10;4.00;;;19.40;99.90;;;;;;5052869;28;20033;-77
2022/06/28 03:41:04;;;;;;;4.68;3.95;;;19.50;99.90;;;;;;5052728;28;20457;-77
2022/06/28 03:43:30;;;;;;;4.30;3.90;;;19.50;99.90;;;;;;5054009;28;20108;-78
2022/06/28 03:45:55;;;;;;;5.15;3.13;;;19.50;99.90;;;;;;5052745;28;20033;-78
2022/06/28 03:48:21;;;;;;;3.22;2.92;;;19.60;99.90;;;;;;5053876;28;20059;-78
2022/06/28 03:50:47;;;;;;;3.03;2.83;;;19.60;99.90;;;;;;5054184;28;20033;-78
2022/06/28 03:53:12;;;;;;;3.53;3.15;;;19.70;99.90;;;;;;5052688;28;20075;-77
2022/06/28 03:55:38;;;;;;;3.05;2.42;;;19.70;99.90;;;;;;5052553;28;20479;-78
2022/06/28 03:58:04;;;;;;;3.67;2.50;;;19.70;99.90;;;;;;5054316;28;20136;-78
2022/06/28 04:00:29;;;;;;;3.97;2.50;;;19.70;99.90;;;;;;5053495;28;20435;-78
2022/06/28 04:02:57;;;;;;;3.45;2.13;;;19.70;99.90;;;;;;5053829;28;20445;-78
2022/06/28 04:05:23;;;;;;;2.60;2.08;;;19.80;99.90;;;;;;5052673;28;20421;-77
2022/06/28 04:07:48;;;;;;;2.70;2.30;;;19.80;99.90;;;;;;5052379;28;20025;-77
2022/06/28 04:10:14;;;;;;;1.83;1.67;;;19.80;99.90;;;;;;5052406;28;20029;-78
2022/06/28 04:12:40;;;;;;;4.75;1.90;;;19.80;99.90;;;;;;5052947;28;20056;-66
2022/06/28 04:15:06;;;;;;;1.75;1.65;;;19.80;99.90;;;;;;5053668;28;20354;-67
2022/06/28 04:17:31;;;;;;;4.75;2.90;;;20.00;99.90;;;;;;5053572;28;20461;-67
2022/06/28 04:19:57;;;;;;;1.67;1.58;;;20.10;99.90;;;;;;5053550;28;20033;-66
2022/06/28 04:22:22;;;;;;;3.55;1.60;;;20.10;99.90;;;;;;5053439;28;20045;-66
2022/06/28 04:24:48;;;;;;;1.65;1.52;;;20.20;99.90;;;;;;5052298;28;20031;-67
2022/06/28 04:27:14;;;;;;;2.25;2.05;;;20.20;99.90;;;;;;5053700;28;20435;-81
2022/06/28 04:29:39;;;;;;;1.80;1.70;;;20.20;99.90;;;;;;5053985;28;20039;-88
2022/06/28 04:32:05;;;;;;;2.75;1.75;;;20.10;99.90;;;;;;5057472;28;20029;-86
2022/06/28 04:34:31;;;;;;;1.95;1.75;;;20.00;99.90;;;;;;5057036;28;20031;-83
2022/06/28 04:36:57;;;;;;;1.77;1.13;;;20.00;99.90;;;;;;5056365;28;20064;-84
2022/06/28 04:39:24;;;;;;;4.43;1.77;;;19.90;99.90;;;;;;5056574;28;20029;-81
2022/06/28 04:41:50;;;;;;;2.17;1.98;;;19.90;99.90;;;;;;5057577;28;20025;-82
2022/06/28 04:44:16;;;;;;;1.92;1.73;;;19.90;99.90;;;;;;5056464;28;20071;-82
2022/06/28 04:46:41;;;;;;;3.47;1.30;;;19.90;99.90;;;;;;5056435;28;20110;-82
2022/06/28 04:49:07;;;;;;;2.33;1.60;;;19.90;99.90;;;;;;5056212;28;20025;-82
2022/06/28 04:51:33;;;;;;;1.83;1.40;;;19.90;99.90;;;;;;5056568;28;20029;-82
2022/06/28 04:53:59;;;;;;;1.67;1.58;;;19.90;99.90;;;;;;5056883;28;20033;-83
2022/06/28 04:56:24;;;;;;;2.47;1.30;;;19.90;99.90;;;;;;5056056;28;20082;-82
2022/06/28 04:58:51;;;;;;;2.28;1.60;;;19.90;99.90;;;;;;5056353;28;20461;-81
2022/06/28 05:01:17;;;;;;;3.15;1.42;;;19.90;99.90;;;;;;5056041;28;20124;-82
2022/06/28 05:03:43;;;;;;;2.22;1.40;;;19.90;99.90;;;;;;5055603;28;20067;-81
2022/06/28 05:06:08;;;;;;;2.03;1.38;;;19.90;99.90;;;;;;5056042;28;20052;-82
2022/06/28 05:08:34;;;;;;;1.98;1.40;;;20.00;99.90;;;;;;5055874;28;20483;-82
2022/06/28 05:11:01;;;;;;;2.72;1.20;;;20.00;99.90;;;;;;5056944;28;20452;-80
2022/06/28 05:13:27;;;;;;;1.58;1.27;;;20.10;99.90;;;;;;5055667;28;20029;-80
2022/06/28 05:15:52;;;;;;;1.30;1.20;;;20.20;99.90;;;;;;5057016;28;20025;-80
2022/06/28 05:18:18;;;;;;;2.83;1.40;;;20.30;99.90;;;;;;5056861;28;20452;-79
2022/06/28 05:20:43;;;;;;;2.47;1.48;;;20.30;99.90;;;;;;5055497;28;20058;-79
2022/06/28 05:23:09;;;;;;;2.08;1.50;;;20.40;99.90;;;;;;5056599;28;20064;-79
2022/06/28 05:25:35;;;;;;;1.25;1.25;;;20.50;99.90;;;;;;5056212;28;20055;-79
2022/06/28 05:28:00;;;;;;;3.47;1.20;;;20.60;99.90;;;;;;5055281;28;20040;-78
2022/06/28 05:30:26;;;;;;;2.25;1.35;;;20.70;99.90;;;;;;5055968;28;20032;-78
2022/06/28 05:32:52;;;;;;;2.15;1.10;;;20.70;99.90;;;;;;5055190;28;20021;-78
2022/06/28 05:35:17;;;;;;;2.38;1.00;;;20.80;99.90;;;;;;5055042;28;20032;-78
2022/06/28 05:37:43;;;;;;;1.70;1.38;;;20.80;99.90;;;;;;5054947;28;20116;-78
2022/06/28 05:40:09;;;;;;;1.60;1.00;;;20.90;99.90;;;;;;5054957;28;20021;-78
2022/06/28 05:42:35;;;;;;;4.63;1.17;;;20.90;99.90;;;;;;5054900;28;20028;-77
2022/06/28 05:45:00;;;;;;;6.30;1.63;;;20.90;99.90;;;;;;5054869;28;20028;-77
2022/06/28 05:47:26;;;;;;;1.50;1.40;;;20.90;99.90;;;;;;5056549;28;20036;-77
2022/06/28 05:49:51;;;;;;;2.20;1.00;;;20.90;99.90;;;;;;5056045;28;20033;-77
2022/06/28 05:52:17;;;;;;;3.03;1.10;;;21.00;99.90;;;;;;5056509;28;20368;-77
2022/06/28 05:54:43;;;;;;;1.27;1.17;;;21.00;99.90;;;;;;5055939;28;20017;-77
2022/06/28 05:57:08;;;;;;;4.15;1.30;;;21.00;99.90;;;;;;5054483;28;20103;-77
2022/06/28 05:59:34;;;;;;;4.82;1.77;;;21.10;99.90;;;;;;5054644;28;20036;-77
2022/06/28 06:02:00;;;;;;;5.93;1.75;;;21.20;99.90;;;;;;5054482;28;20028;-77
2022/06/28 06:04:25;;;;;;;1.48;1.35;;;21.20;99.90;;;;;;5055885;28;20032;-77
2022/06/28 06:06:52;;;;;;;2.70;1.00;;;21.30;99.90;;;;;;5055752;28;20033;-77
2022/06/28 06:09:18;;;;;;;2.28;0.98;;;21.40;99.90;;;;;;5055514;28;20037;-77
2022/06/28 06:11:44;;;;;;;1.77;0.98;;;21.50;99.90;;;;;;5055861;28;20051;-76
2022/06/28 06:14:10;;;;;;;1.27;1.20;;;21.50;99.90;;;;;;5055652;28;20421;-77
2022/06/28 06:16:36;;;;;;;1.60;1.30;;;21.70;99.90;;;;;;5055522;28;20025;-77
2022/06/28 06:19:02;;;;;;;2.92;1.20;;;21.80;99.90;;;;;;5055578;28;20036;-77
2022/06/28 06:21:28;;;;;;;2.22;1.00;;;21.90;99.90;;;;;;5054126;28;20032;-77
2022/06/28 06:23:54;;;;;;;3.60;1.63;;;22.20;99.90;;;;;;5055436;28;20021;-77
2022/06/28 06:26:19;;;;;;;3.40;0.90;;;22.50;99.90;;;;;;5055327;28;20100;-77
2022/06/28 06:28:45;;;;;;;2.65;1.00;;;22.80;99.90;;;;;;5055528;28;20381;-77
2022/06/28 06:31:12;;;;;;;1.52;1.08;;;23.10;99.90;;;;;;5055009;28;20104;-74
2022/06/28 06:33:38;;;;;;;4.20;1.13;;;23.30;99.90;;;;;;5055193;28;20083;-74
2022/06/28 06:36:04;;;;;;;3.78;1.00;;;23.40;99.90;;;;;;5055176;28;20037;-74
2022/06/28 06:38:30;;;;;;;2.35;1.27;;;23.50;99.90;;;;;;5054207;28;20060;-74
2022/06/28 06:40:58;;;;;;;1.20;1.10;;;23.70;99.90;;;;;;5054084;28;20080;-74
2022/06/28 06:43:27;;;;;;;1.38;0.82;;;24.10;99.90;;;;;;5054822;28;20028;-74
2022/06/28 06:45:54;;;;;;;2.92;0.90;;;24.40;99.90;;;;;;5054974;28;20025;-74
2022/06/28 06:48:21;;;;;;;2.17;1.23;;;24.80;99.90;;;;;;5054946;28;20025;-74
2022/06/28 06:50:46;;;;;;;2.38;1.25;;;24.90;99.90;;;;;;5054887;28;20075;-74
2022/06/28 06:53:12;;;;;;;2.40;1.38;;;25.10;99.90;;;;;;5053501;28;20029;-74
2022/06/28 06:55:38;;;;;;;3.92;1.23;;;25.30;99.90;;;;;;5053498;28;20026;-74
2022/06/28 06:58:03;;;;;;;4.80;2.35;;;25.40;99.90;;;;;;5053301;28;20056;-74
2022/06/28 07:00:30;;;;;;;1.77;1.67;;;25.60;99.90;;;;;;5054896;28;20457;-74
2022/06/28 07:02:55;;;;;;;1.75;1.65;;;25.60;99.90;;;;;;5054703;28;20029;-74
2022/06/28 07:05:21;;;;;;;2.58;1.40;;;25.60;99.90;;;;;;5053528;28;20029;-74
2022/06/28 07:07:46;;;;;;;2.63;1.98;;;25.50;99.90;;;;;;5054713;28;20060;-74
2022/06/28 07:10:12;;;;;;;3.15;1.80;;;25.50;99.90;;;;;;5054546;28;20029;-74
2022/06/28 07:12:38;;;;;;;2.22;1.50;;;25.50;99.90;;;;;;5054364;28;20029;-74
2022/06/28 07:15:04;;;;;;;1.45;1.15;;;25.30;99.90;;;;;;5053114;28;20028;-74
2022/06/28 07:17:29;;;;;;;2.95;1.38;;;24.90;99.90;;;;;;5053155;28;20027;-74
2022/06/28 07:19:55;;;;;;;2.53;1.42;;;24.60;99.90;;;;;;5054114;28;20028;-74
2022/06/28 07:22:22;;;;;;;3.40;1.30;;;24.80;99.90;;;;;;5054329;28;20111;-74
2022/06/28 07:24:49;;;;;;;3.53;1.17;;;24.70;99.90;;;;;;5054601;28;20429;-74
2022/06/28 07:27:15;;;;;;;1.50;1.40;;;24.70;99.90;;;;;;5052864;28;20124;-74
2022/06/28 07:29:41;;;;;;;2.28;1.40;;;24.70;99.90;;;;;;5053902;28;20111;-74
2022/06/28 07:32:07;;;;;;;4.10;1.52;;;24.80;99.90;;;;;;5054466;28;20044;-74
2022/06/28 07:34:32;;;;;;;1.40;1.10;;;24.70;99.90;;;;;;5052889;28;20419;-74
2022/06/28 07:36:58;;;;;;;2.88;1.27;;;24.80;99.90;;;;;;5054062;28;20029;-74
2022/06/28 07:39:24;;;;;;;1.73;1.23;;;24.90;99.90;;;;;;5054059;28;20029;-73
2022/06/28 07:41:49;;;;;;;2.15;0.82;;;25.20;99.90;;;;;;5053918;28;20365;-74
2022/06/28 07:44:15;;;;;;;2.75;1.20;;;25.20;99.90;;;;;;5054068;28;20070;-74
2022/06/28 07:46:41;;;;;;;2.17;1.10;;;25.20;99.90;;;;;;5053919;28;20025;-74
2022/06/28 07:49:06;;;;;;;2.40;1.17;;;25.40;99.90;;;;;;5053470;28;20032;-74
2022/06/28 07:54:16;;;;;;;2.15;1.58;;;26.00;99.90;;;;;;5053969;28;20079;-74
2022/06/28 07:56:42;;;;;;;2.42;1.23;;;26.30;99.90;;;;;;5053733;28;20049;-75
2022/06/28 07:59:07;;;;;;;1.52;1.10;;;26.50;99.90;;;;;;5053815;28;20072;-74
2022/06/28 08:01:33;;;;;;;1.75;1.13;;;26.50;99.90;;;;;;5053867;28;20029;-74
2022/06/28 08:03:58;;;;;;;0.93;0.93;;;26.70;99.90;;;;;;5054224;28;20032;-74
2022/06/28 08:06:24;;;;;;;2.92;1.15;;;26.70;99.90;;;;;;5053166;28;20049;-74
2022/06/28 08:08:50;;;;;;;3.38;1.10;;;26.70;99.90;;;;;;5052049;28;20025;-74
2022/06/28 08:11:16;;;;;;;1.33;0.73;;;27.10;99.00;;;;;;5053650;28;20036;-74
2022/06/28 08:13:41;;;;;;;0.73;0.73;;;27.00;99.20;;;;;;5053553;28;20025;-74
2022/06/28 08:16:07;;;;;;;1.17;0.95;;;27.30;98.40;;;;;;5052270;28;20024;-74
2022/06/28 08:18:32;;;;;;;1.20;1.10;;;27.40;97.10;;;;;;5052323;28;20137;-74
2022/06/28 08:20:58;;;;;;;1.50;1.08;;;27.50;96.80;;;;;;5053608;28;20035;-75
2022/06/28 08:23:24;;;;;;;1.40;0.80;;;27.80;96.10;;;;;;5053262;28;20029;-74
2022/06/28 08:25:49;;;;;;;1.27;1.17;;;27.70;96.30;;;;;;5052385;28;20021;-75
2022/06/28 08:28:16;;;;;;;1.95;0.93;;;28.00;95.80;;;;;;5053475;28;20032;-74
2022/06/28 08:30:42;;;;;;;1.75;0.73;;;28.70;94.20;;;;;;5053488;28;20032;-75
2022/06/28 08:33:08;;;;;;;1.88;0.93;;;29.30;92.40;;;;;;5053040;28;20029;-75
2022/06/28 08:35:34;;;;;;;2.67;1.20;;;30.00;88.60;;;;;;5053377;28;20103;-74
2022/06/28 08:38:01;;;;;;;2.63;1.02;;;29.40;87.50;;;;;;5053347;28;20048;-74
2022/06/28 08:40:27;;;;;;;1.42;1.00;;;28.90;88.90;;;;;;5053374;28;20025;-74
2022/06/28 08:42:55;;;;;;;2.72;1.00;;;28.30;90.10;;;;;;5052028;28;20025;-74
2022/06/28 08:45:22;;;;;;;2.50;1.10;;;28.00;91.10;;;;;;5051823;28;20025;-74
2022/06/28 08:47:51;;;;;;;3.53;1.30;;;27.80;92.20;;;;;;5053022;28;20029;-75
2022/06/28 08:50:34;;;;;;;2.45;1.38;;;27.70;93.00;;;;;;5051865;28;20029;-74
2022/06/28 08:53:05;;;;;;;2.58;1.10;;;28.10;92.30;;;;;;5052144;28;20029;-75
2022/06/28 08:55:32;;;;;;;1.02;0.90;;;28.20;91.30;;;;;;5052323;28;20029;-75
2022/06/28 08:57:59;;;;;;;2.40;1.30;;;28.10;92.10;;;;;;5053417;28;20049;-75
2022/06/28 09:00:25;;;;;;;2.65;1.13;;;28.50;91.40;;;;;;5052091;28;20488;-75
2022/06/28 09:02:51;;;;;;;2.78;0.93;;;29.20;90.60;;;;;;5053223;28;20029;-74
2022/06/28 09:05:19;;;;;;;2.17;1.20;;;29.00;88.40;;;;;;5052836;28;20489;-75
2022/06/28 09:07:45;;;;;;;7.07;1.20;;;29.10;90.10;;;;;;5051884;28;20036;-75
2022/06/28 09:10:11;;;;;;;1.63;1.15;;;29.70;86.00;;;;;;5052730;28;20037;-75
2022/06/28 09:12:37;;;;;;;2.50;1.20;;;29.20;87.70;;;;;;5053109;28;20067;-75
2022/06/28 09:15:04;;;;;;;1.23;1.13;;;29.40;86.10;;;;;;5053351;28;20107;-74
2022/06/28 09:17:31;;;;;;;7.05;1.52;;;29.80;84.60;;;;;;5053895;28;20024;-75
2022/06/28 09:20:05;;;;;;;5.85;1.65;;;29.20;83.70;;;;;;5056649;28;20044;-75
2022/06/28 09:22:37;;;;;;;3.35;1.23;;;29.50;84.90;;;;;;5055420;28;20480;-75
2022/06/28 09:25:24;;;;;;;1.98;1.20;;;30.00;81.80;;;;;;5056426;28;20036;-75
2022/06/28 09:27:54;;;;;;;2.97;1.20;;;30.40;79.30;;;;;;5056501;28;20025;-76
2022/06/28 09:30:21;;;;;;;2.35;1.10;;;30.30;77.60;;;;;;5056250;28;20059;-74
2022/06/28 09:32:46;;;;;;;3.25;1.42;;;30.30;78.80;;;;;;5056475;28;20025;-74
2022/06/28 09:35:12;;;;;;;5.97;2.70;;;30.90;76.60;;;;;;5056318;28;20120;-76
2022/06/28 09:37:47;;;;;;;1.35;1.20;;;30.90;75.50;;;;;;5056424;28;20354;-75
2022/06/28 09:40:31;;;;;;;4.32;1.27;;;31.10;73.90;;;;;;5055103;28;20029;-74
2022/06/28 09:43:07;;;;;;;2.05;1.30;;;31.00;73.70;;;;;;5054928;28;20091;-74
2022/06/28 09:45:34;;;;;;;2.10;1.17;;;30.90;71.60;;;;;;5054945;28;20491;-74
2022/06/28 09:48:00;;;;;;;2.28;0.90;;;31.00;73.20;;;;;;5056042;28;20025;-75
2022/06/28 09:50:26;;;;;;;1.88;1.02;;;31.30;70.90;;;;;;5056178;28;20025;-74
2022/06/28 09:52:52;;;;;;;3.55;1.20;;;31.80;71.30;;;;;;5056118;28;20032;-76
2022/06/28 09:55:19;;;;;;;1.98;1.15;;;31.90;68.30;;;;;;5055967;28;20029;-75
2022/06/28 09:57:47;;;;;;;2.10;1.17;;;31.40;69.00;;;;;;5056112;28;20037;-75
2022/06/28 10:00:14;;;;;;;1.60;1.23;;;31.00;69.50;;;;;;5054905;28;20089;-75
2022/06/28 10:02:41;;;;;;;2.38;1.20;;;31.10;69.90;;;;;;5055886;28;20036;-76
2022/06/28 10:05:11;;;;;;;2.05;1.30;;;31.80;68.60;;;;;;5055771;28;20036;-76
2022/06/28 10:07:38;;;;;;;1.65;1.10;;;32.20;66.90;;;;;;5055820;28;20123;-77
2022/06/28 10:10:05;;;;;;;3.42;1.58;;;31.80;66.80;;;;;;5055383;28;20420;-78
2022/06/28 10:15:21;;;;;;;2.15;1.20;;;31.90;68.00;;;;;;5055595;28;20035;-77
2022/06/28 10:17:54;;;;;;;1.38;1.05;;;32.20;66.20;;;;;;5054105;28;20523;-77
2022/06/28 10:20:27;;;;;;;1.35;1.10;;;32.40;65.20;;;;;;5055457;28;20104;-76
2022/06/28 10:23:34;;;;;;;2.08;1.67;;;32.90;64.30;;;;;;5055094;28;20043;-79
2022/06/28 10:26:09;;;;;;;1.60;1.02;;;33.20;61.80;;;;;;5055245;28;20029;-76
2022/06/28 10:28:55;;;;;;;1.45;1.30;;;33.00;62.70;;;;;;5055561;28;20380;-79
2022/06/28 10:31:23;;;;;;;1.75;1.10;;;32.90;63.00;;;;;;5055705;28;20078;-78
2022/06/28 10:33:49;;;;;;;;;;;32.20;63.60;;;;;;5054187;28;20090;-76
2022/06/28 10:36:18;;;;;;;2.45;1.25;;;32.30;64.60;;;;;;5054066;28;19904;-79
2022/06/28 10:39:08;;;;;;;1.08;1.08;;;32.90;62.90;;;;;;5055148;28;20048;-77
2022/06/28 10:41:38;;;;;;;1.25;1.13;;;32.90;61.40;;;;;;5053882;28;20128;-77
2022/06/28 10:44:16;;;;;;;2.58;1.48;;;32.40;62.20;;;;;;5054175;28;20083;-79
2022/06/28 10:46:48;;;;;;;1.77;1.23;;;32.90;63.50;;;;;;5054861;28;20024;-77
2022/06/28 10:49:13;;;;;;;1.27;0.93;;;32.90;61.80;;;;;;5055079;28;20167;-77
2022/06/28 10:52:14;;;;;;;1.10;1.10;;;32.90;61.80;;;;;;5054929;28;20481;-78
2022/06/28 10:54:52;;;;;;;2.35;1.15;;;32.70;61.90;;;;;;5053545;28;20051;-77
2022/06/28 10:57:33;;;;;;;3.60;1.27;;;32.70;61.40;;;;;;5053484;28;20076;-77
2022/06/28 11:00:10;;;;;;;2.45;1.33;;;32.80;61.50;;;;;;5054408;28;20473;-77
2022/06/28 11:02:51;;;;;;;6.63;1.38;;;33.00;62.00;;;;;;5053468;28;20528;-77
2022/06/28 11:05:19;;;;;;;2.67;1.20;;;33.30;59.50;;;;;;5054686;28;20027;-77
2022/06/28 11:07:59;;;;;;;3.78;1.67;;;33.60;59.00;;;;;;5054902;28;20028;-78
2022/06/28 11:10:26;;;;;;;3.03;1.38;;;33.90;58.50;;;;;;5054313;28;20570;-76
2022/06/28 11:12:52;;;;;;;2.15;1.08;;;33.90;58.50;;;;;;5053440;28;20020;-79
2022/06/28 11:15:32;;;;;;;2.70;1.25;;;34.00;57.40;;;;;;5053223;28;20112;-79
2022/06/28 11:17:59;;;;;;;5.13;1.15;;;34.20;58.00;;;;;;5054222;28;20552;-77
2022/06/28 11:20:25;;;;;;;1.88;1.08;;;33.90;57.40;;;;;;5053160;28;20107;-79
2022/06/28 11:22:51;;;;;;;3.13;1.20;;;33.70;57.00;;;;;;5054409;28;20116;-77
2022/06/28 11:25:22;;;;;;;1.45;1.20;;;33.20;58.10;;;;;;5052964;28;20024;-79
2022/06/28 11:27:57;;;;;;;2.10;1.10;;;33.30;58.20;;;;;;5054319;28;20094;-78
2022/06/28 11:30:28;;;;;;;1.67;1.02;;;33.60;57.90;;;;;;5054297;28;20025;-77
2022/06/28 11:32:59;;;;;;;2.50;1.17;;;33.90;57.70;;;;;;5054578;28;20031;-76
2022/06/28 11:35:30;;;;;;;2.38;0.80;;;33.50;58.20;;;;;;5052887;28;20021;-78
2022/06/28 11:38:05;;;;;;;4.25;1.63;;;33.80;58.20;;;;;;5054082;28;20044;-78
2022/06/28 11:40:49;;;;;;;3.70;1.00;;;34.30;56.60;;;;;;5053392;28;20027;-79
2022/06/28 11:43:25;;;;;;;4.65;1.45;;;34.60;56.00;;;;;;5052776;28;20025;-79
2022/06/28 11:45:52;;;;;;;2.75;1.25;;;34.30;56.30;;;;;;5053542;28;20357;-79
2022/06/28 11:48:37;;;;;;;2.70;1.38;;;34.50;56.00;;;;;;5053976;28;20036;-79
2022/06/28 11:51:03;;;;;;;1.98;1.10;;;34.70;56.20;;;;;;5053975;28;20087;-79
2022/06/28 11:53:30;;;;;;;2.83;1.25;;;35.10;54.50;;;;;;5054077;28;20028;-79
2022/06/28 11:55:57;;;;;;;1.35;1.02;;;35.20;55.20;;;;;;5052687;28;20538;-79
2022/06/28 11:58:38;;;;;;;4.22;1.33;;;35.10;55.10;;;;;;5052327;28;20055;-79
2022/06/28 12:01:16;;;;;;;1.25;1.00;;;34.30;55.90;;;;;;5053907;28;20044;-77
2022/06/28 12:03:41;;;;;;;1.42;1.08;;;33.80;57.30;;;;;;5054004;28;20082;-77
2022/06/28 12:06:08;;;;;;;4.32;1.20;;;33.10;57.60;;;;;;5052033;28;20033;-77
2022/06/28 12:08:47;;;;;;;2.25;0.82;;;33.50;57.10;;;;;;5053880;28;20040;-79
2022/06/28 12:11:50;;;;;;;3.08;1.27;;;34.40;55.70;;;;;;5053562;28;20028;-78
2022/06/28 12:14:17;;;;;;;2.67;0.82;;;34.30;54.50;;;;;;5053691;28;20174;-77
2022/06/28 12:17:03;;;;;;;3.95;0.95;;;34.20;55.90;;;;;;5052284;28;20029;-78
2022/06/28 12:19:31;;;;;;;1.23;0.70;;;34.60;53.80;;;;;;5053699;28;20155;-79
2022/06/28 12:22:20;;;;;;;4.37;0.93;;;34.90;53.90;;;;;;5051968;28;20036;-79
2022/06/28 12:24:54;;;;;;;3.63;0.98;;;35.40;52.40;;;;;;5053369;28;20059;-79
2022/06/28 12:27:27;;;;;;;4.28;1.00;;;36.00;52.70;;;;;;5053506;28;20021;-79
2022/06/28 12:29:54;;;;;;;1.40;0.90;;;34.60;53.60;;;;;;5053464;28;20033;-78
2022/06/28 12:32:20;;;;;;;2.25;0.90;;;33.30;59.90;;;;;;5053528;28;20033;-77
2022/06/28 12:34:46;;;;;;;1.23;0.90;;;32.90;59.80;;;;;;5053407;28;20029;-77
2022/06/28 12:37:12;;;;;;;4.00;1.17;;;33.10;59.90;;;;;;5053395;28;20024;-77
2022/06/28 12:39:38;;;;;;;1.55;1.02;;;33.10;58.60;;;;;;5052024;28;20465;-78
2022/06/28 12:42:05;;;;;;;1.90;0.98;;;33.40;59.20;;;;;;5053493;28;20090;-78
2022/06/28 12:44:31;;;;;;;4.30;1.15;;;33.90;57.30;;;;;;5053358;28;20028;-75
2022/06/28 12:46:57;;;;;;;2.45;1.10;;;34.80;55.60;;;;;;5053413;28;20021;-76
2022/06/28 12:49:23;;;;;;;1.55;0.70;;;34.80;54.20;;;;;;5053472;28;20037;-76
2022/06/28 12:51:49;;;;;;;2.15;0.80;;;34.40;54.70;;;;;;5054251;28;20029;-75
2022/06/28 12:54:16;;;;;;;1.67;0.60;;;34.90;54.10;;;;;;5057509;28;20040;-79
2022/06/28 12:56:42;;;;;;;3.88;0.88;;;35.70;53.10;;;;;;5055730;28;20107;-77
2022/06/28 12:59:08;;;;;;;0.75;0.52;;;36.20;50.80;;;;;;5057305;28;20032;-80
2022/06/28 13:01:34;;;;;;;5.10;0.80;;;36.60;50.30;;;;;;5055809;28;20484;-77
2022/06/28 13:03:59;;;;;;;2.25;1.02;;;36.60;50.20;;;;;;5057426;28;20071;-77